Nearby METAR Reports

 

EBAW - Antwerpen, Belgium
Distance from station: NW 22km
Updated: 2020-01-26 15:50
Partly cloudy
Partly cloudy
 Wind from SSW
Wind: SSW 17 km/h
Temperature: 10°C
Wind Chill: 8°C
Dew Point: 6°C
Humidity: 76%
Barometer: 1013 hPa
Clouds: Partly cloudy
Visibility: 10 km
Cloud details: Few Clouds 640 m
Partly cloudy 1128 m
2020/01/26 14:50 EBAW 261450Z 20009KT 170V240 9999 FEW021 SCT037 10/06 Q1013 NOSIG
EBBR - Brussel, Belgium
Distance from station: SW 24km
Updated: 2020-01-26 15:50
Few Clouds
Few Clouds
 Wind from SSW
Wind: SSW 19 km/h
Temperature: 10°C
Wind Chill: 7°C
Dew Point: 5°C
Humidity: 71%
Barometer: 1014 hPa
Clouds: Few Clouds
Visibility: 10 km
Cloud details: Few Clouds 732 m
2020/01/26 14:50 EBBR 261450Z 21010KT 9999 FEW024 10/05 Q1014 NOSIG
 
EBDT - Schaffen, Belgium
Distance from station: ESE 26km
Updated: 2020-01-26 15:55
Mostly cloudy
Mostly cloudy
 Wind from S
Wind: S 13 km/h
Temperature: 10°C
Wind Chill: 8°C
Dew Point: 6°C
Humidity: 76%
Barometer: 1014 hPa
Clouds: Mostly cloudy
Visibility: 10 km
Cloud details: Partly cloudy 1981 m
Mostly cloudy 2438 m
Mostly cloudy 3962 m
2020/01/26 14:55 EBDT 261455Z AUTO 19007KT 9999 SCT065/// BKN080/// BKN130/// 10/06 Q1014 BLU
EBBE - Beauvechain, Belgium
Distance from station: S 36km
Updated: 2020-01-26 15:55

 Wind from SSW
Wind: SSW 17 km/h
2020/01/26 14:55 EBBE 261455Z AUTO 20009KT //// /// ///// Q////
 
EHWO - Woensdrecht Rnla, Netherlands
Distance from station: NNW 50km
Updated: 2020-01-26 15:55
Mostly cloudy
Mostly cloudy
 Wind from SSW
Wind: SSW 17 km/h
Temperature: 10°C
Wind Chill: 8°C
Dew Point: 6°C
Humidity: 76%
Barometer: 1012 hPa
Clouds: Mostly cloudy
Visibility: 10 km
Cloud details: Mostly cloudy 488 m
Mostly cloudy 671 m
Mostly cloudy 1737 m
2020/01/26 14:55 EHWO 261455Z AUTO 20009KT 150V240 9999 BKN016 BKN022 BKN057 10/06 Q1012 WHT
EBBL - Kleine-Brogel, Belgium
Distance from station: ENE 54km
Updated: 2020-01-26 15:55
Few Clouds
Few Clouds
 Wind from SSW
Wind: SSW 9 km/h
Temperature: 10°C
Wind Chill: 9°C
Dew Point: 5°C
Humidity: 71%
Barometer: 1014 hPa
Clouds: Few Clouds
Visibility: 10 km
Cloud details: Few Clouds 7315 m
2020/01/26 14:55 EBBL 261455Z AUTO 20005KT 9999 FEW240/// 10/05 Q1014 BLU
 
EHGR - Gilze-Rijen Rnla, Netherlands
Distance from station: NNE 57km
Updated: 2020-01-26 15:55
Overcast
Overcast
 Wind from S
Wind: S 22 km/h
Temperature: 10°C
Wind Chill: 7°C
Dew Point: 6°C
Humidity: 76%
Barometer: 1013 hPa
Clouds: Overcast
Visibility: 10 km
Cloud details: Overcast 7010 m
2020/01/26 14:55 EHGR 261455Z AUTO 19012KT 140V230 9999 OVC230 10/06 Q1013 BLU
EHEH - Eindhoven Rnlafb, Netherlands
Distance from station: NE 63km
Updated: 2020-01-26 15:55
Clear
Clear
 Wind from S
Wind: S 15 km/h
Temperature: 10°C
Wind Chill: 8°C
Dew Point: 6°C
Humidity: 76%
Barometer: 1013 hPa
Clouds: Clear
Visibility: 10 km
2020/01/26 14:55 EHEH 261455Z AUTO 19008KT 9999 NCD 10/06 Q1013 BLU 20008KT CAVOK
 
EBCI - Charleroi, Belgium
Distance from station: SSW 70km
Updated: 2020-01-26 15:50
Few Clouds
Few Clouds
 Wind from S
Wind: S 22 km/h
Temperature: 9°C
Wind Chill: 6°C
Dew Point: 5°C
Humidity: 76%
Barometer: 1014 hPa
Clouds: Few Clouds
Visibility: 10 km
Cloud details: Few Clouds 457 m
2020/01/26 14:50 EBCI 261450Z 19012KT 9999 FEW015 09/05 Q1014 NOSIG
EBLG - Bierset, Belgium
Distance from station: SE 72km
Updated: 2020-01-26 15:50
Clear
Clear
 Wind from SSW
Wind: SSW 15 km/h
Temperature: 9°C
Wind Chill: 7°C
Dew Point: 4°C
Humidity: 71%
Barometer: 1014 hPa
Summary: Clear
Visibility: greater than 10 km
2020/01/26 14:50 EBLG 261450Z 20008KT 160V220 CAVOK 09/04 Q1014 NOSIG